^^
Saratoga-Weather Station Historical Data
Daily Summary for March 20, 2020 Units:  Both    English   Metric
Daily Weekly Monthly Yearly Custom
  High: Low: Average:
Temperature: 48.4 °F /  9.1 °C 41.5 °F /  5.3 °C 45 °F /  7.2 °C
Dew Point: 43.7 °F /  6.5 °C 37.8 °F /  3.2 °C 41.2 °F /  5.1 °C
Humidity: 95% 74% 87%
Wind Speed: 25.1mph /  40.4km/h - 3mph /  4.9km/h
Wind Gust: 27mph /  43.5km/h - -
Wind- - SW
Pressure: 30.2 in /  1023.4 hPa 30 in /  1014.9 hPa -
Precipitation: 0.2 in /  5.1 mm    
Historical Graphs
 
 
Tabular Data for March 20, 2020
Time Temperature Dew Point Pressure Wind Wind Speed Wind Gust Humidity Rainfall Rate (Hourly) solar
00:03 41.7 °F /  5.4 °C 39 °F /  3.9 °C 30.2in /  1023.4hPa NW 0.9mph /  1.4km/h 7mph /  11.3km/h 90% 0.02in /  0.5mm 0 W/m2
00:08 41.7 °F /  5.4 °C 39.2 °F /  4 °C 30.2in /  1023.4hPa WSW 2mph /  3.2km/h 3mph /  4.8km/h 91% 0.03in /  0.8mm 0 W/m2
00:14 41.5 °F /  5.3 °C 39.2 °F /  4 °C 30.2in /  1023.4hPa Calm   7mph /  11.3km/h 91% 0.02in /  0.5mm 0 W/m2
00:19 41.5 °F /  5.3 °C 39.2 °F /  4 °C 30.2in /  1023.0hPa Calm   4mph /  6.4km/h 91% 0.02in /  0.5mm 0 W/m2
00:24 41.5 °F /  5.3 °C 39.2 °F /  4 °C 30.2in /  1023.0hPa Calm   6mph /  9.7km/h 91% 0.02in /  0.5mm 0 W/m2
00:29 41.5 °F /  5.3 °C 39.4 °F /  4.1 °C 30.2in /  1023.0hPa NW 2mph /  3.2km/h 4mph /  6.4km/h 92% 0.03in /  0.8mm 0 W/m2
00:34 41.5 °F /  5.3 °C 39.4 °F /  4.1 °C 30.2in /  1023.0hPa Calm   5mph /  8km/h 92% 0.03in /  0.8mm 0 W/m2
00:39 41.5 °F /  5.3 °C 39.4 °F /  4.1 °C 30.2in /  1023.0hPa NW 0.9mph /  1.4km/h 5mph /  8km/h 92% 0.02in /  0.5mm 0 W/m2
00:44 41.5 °F /  5.3 °C 39.4 °F /  4.1 °C 30.2in /  1023.0hPa West 0.9mph /  1.4km/h 2mph /  3.2km/h 92% 0.03in /  0.8mm 0 W/m2
00:49 41.5 °F /  5.3 °C 39.4 °F /  4.1 °C 30.2in /  1023.0hPa Calm   5mph /  8km/h 92% 0.03in /  0.8mm 0 W/m2
00:54 41.5 °F /  5.3 °C 39.4 °F /  4.1 °C 30.2in /  1023.0hPa NW 0.9mph /  1.4km/h 2mph /  3.2km/h 92% 0.03in /  0.8mm 0 W/m2
00:59 41.5 °F /  5.3 °C 39.7 °F /  4.3 °C 30.2in /  1023.0hPa SSE 4.9mph /  7.9km/h 7mph /  11.3km/h 93% 0.02in /  0.5mm 0 W/m2
01:04 41.5 °F /  5.3 °C 39.7 °F /  4.3 °C 30.2in /  1023.0hPa West 0.9mph /  1.4km/h 3mph /  4.8km/h 93% 0.02in /  0.5mm 0 W/m2
01:09 41.5 °F /  5.3 °C 39.7 °F /  4.3 °C 30.2in /  1022.7hPa SE 2.9mph /  4.7km/h 7mph /  11.3km/h 93% 0.02in /  0.5mm 0 W/m2
01:14 41.5 °F /  5.3 °C 39.7 °F /  4.3 °C 30.2in /  1023.0hPa SW 0.9mph /  1.4km/h 3mph /  4.8km/h 93% 0.02in /  0.5mm 0 W/m2
01:20 41.5 °F /  5.3 °C 39.7 °F /  4.3 °C 30.2in /  1022.7hPa SW 0.9mph /  1.4km/h 6mph /  9.7km/h 93% 0.02in /  0.5mm 0 W/m2
01:25 41.5 °F /  5.3 °C 39.7 °F /  4.3 °C 30.2in /  1022.7hPa West 4mph /  6.4km/h 6mph /  9.7km/h 93% 0.02in /  0.5mm 0 W/m2
01:30 41.5 °F /  5.3 °C 39.7 °F /  4.3 °C 30.2in /  1022.7hPa West 2mph /  3.2km/h 4mph /  6.4km/h 93% 0.02in /  0.5mm 0 W/m2
01:35 41.5 °F /  5.3 °C 39.7 °F /  4.3 °C 30.2in /  1022.7hPa West 2mph /  3.2km/h 6mph /  9.7km/h 93% 0.02in /  0.5mm 0 W/m2
01:40 41.5 °F /  5.3 °C 39.7 °F /  4.3 °C 30.2in /  1022.4hPa NW 0.9mph /  1.4km/h 3mph /  4.8km/h 93% 0.02in /  0.5mm 0 W/m2
01:45 41.5 °F /  5.3 °C 39.7 °F /  4.3 °C 30.2in /  1022.4hPa ENE 0.9mph /  1.4km/h 6mph /  9.7km/h 93% 0.02in /  0.5mm 0 W/m2
01:50 41.5 °F /  5.3 °C 39.9 °F /  4.4 °C 30.2in /  1022.4hPa NW 0.9mph /  1.4km/h 6mph /  9.7km/h 94% 0.02in /  0.5mm 0 W/m2
01:55 41.5 °F /  5.3 °C 39.9 °F /  4.4 °C 30.2in /  1022.4hPa West 2mph /  3.2km/h 8mph /  12.9km/h 94% 0.02in /  0.5mm 0 W/m2
02:00 41.5 °F /  5.3 °C 39.9 °F /  4.4 °C 30.2in /  1022.0hPa SSE 0.9mph /  1.4km/h 6mph /  9.7km/h 94% 0.02in /  0.5mm 0 W/m2
02:05 41.5 °F /  5.3 °C 39.9 °F /  4.4 °C 30.2in /  1022.0hPa West 2.9mph /  4.7km/h 4mph /  6.4km/h 94% 0.02in /  0.5mm 0 W/m2
02:10 41.5 °F /  5.3 °C 39.9 °F /  4.4 °C 30.2in /  1022.0hPa WNW 0.9mph /  1.4km/h 6mph /  9.7km/h 94% 0.02in /  0.5mm 0 W/m2
02:16 41.7 °F /  5.4 °C 40.1 °F /  4.5 °C 30.2in /  1022.0hPa West 2mph /  3.2km/h 2mph /  3.2km/h 94% 0.02in /  0.5mm 0 W/m2
02:21 41.7 °F /  5.4 °C 40.1 °F /  4.5 °C 30.2in /  1022.0hPa WNW 2.9mph /  4.7km/h 3mph /  4.8km/h 94% 0.02in /  0.5mm 0 W/m2
02:26 41.7 °F /  5.4 °C 40.1 °F /  4.5 °C 30.2in /  1022.0hPa NW 2mph /  3.2km/h 3mph /  4.8km/h 94% 0.01in /  0.2mm 0 W/m2
02:31 41.7 °F /  5.4 °C 40.1 °F /  4.5 °C 30.2in /  1022.0hPa NE 0.9mph /  1.4km/h 3mph /  4.8km/h 94% 0.01in /  0.2mm 0 W/m2
02:36 41.7 °F /  5.4 °C 40.1 °F /  4.5 °C 30.2in /  1021.7hPa NW 2mph /  3.2km/h 3mph /  4.8km/h 94% 0.01in /  0.2mm 0 W/m2
02:41 41.9 °F /  5.5 °C 40.3 °F /  4.6 °C 30.2in /  1021.7hPa WNW 2mph /  3.2km/h 2mph /  3.2km/h 94% 0.01in /  0.2mm 0 W/m2
02:46 41.9 °F /  5.5 °C 40.3 °F /  4.6 °C 30.2in /  1021.7hPa Calm   5mph /  8km/h 94% 0in /  0.0mm 0 W/m2
02:51 41.9 °F /  5.5 °C 40.3 °F /  4.6 °C 30.2in /  1021.7hPa North 0.9mph /  1.4km/h 3mph /  4.8km/h 94% 0in /  0.0mm 0 W/m2
02:56 42.1 °F /  5.6 °C 40.5 °F /  4.7 °C 30.2in /  1021.7hPa NW 0.9mph /  1.4km/h 5mph /  8km/h 94% 0in /  0.0mm 0 W/m2
03:01 42.1 °F /  5.6 °C 40.5 °F /  4.7 °C 30.2in /  1021.7hPa Calm   1mph /  1.6km/h 94% 0in /  0.0mm 0 W/m2
03:06 42.1 °F /  5.6 °C 40.5 °F /  4.7 °C 30.2in /  1021.3hPa NNE 0.9mph /  1.4km/h 4mph /  6.4km/h 94% 0in /  0.0mm 0 W/m2
03:11 42.1 °F /  5.6 °C 40.5 °F /  4.7 °C 30.2in /  1021.3hPa NNE 2mph /  3.2km/h 3mph /  4.8km/h 94% 0in /  0.0mm 0 W/m2
03:16 42.1 °F /  5.6 °C 40.5 °F /  4.7 °C 30.2in /  1021.3hPa Calm   3mph /  4.8km/h 94% 0in /  0.0mm 0 W/m2
03:21 42.1 °F /  5.6 °C 40.5 °F /  4.7 °C 30.2in /  1021.3hPa NNE 0.9mph /  1.4km/h 9mph /  14.5km/h 94% 0in /  0.0mm 0 W/m2
03:26 42.3 °F /  5.7 °C 40.6 °F /  4.8 °C 30.2in /  1021.3hPa ENE 2.9mph /  4.7km/h 5mph /  8km/h 94% 0in /  0.0mm 0 W/m2
03:31 42.3 °F /  5.7 °C 40.6 °F /  4.8 °C 30.2in /  1021.3hPa North 2.9mph /  4.7km/h 9mph /  14.5km/h 94% 0in /  0.0mm 0 W/m2
03:36 42.3 °F /  5.7 °C 40.6 °F /  4.8 °C 30.2in /  1021.3hPa Calm   3mph /  4.8km/h 94% 0in /  0.0mm 0 W/m2
03:41 42.3 °F /  5.7 °C 40.6 °F /  4.8 °C 30.2in /  1021.3hPa North 0.9mph /  1.4km/h 3mph /  4.8km/h 94% 0in /  0.0mm 0 W/m2
03:46 42.3 °F /  5.7 °C 40.6 °F /  4.8 °C 30.2in /  1021.3hPa North 2mph /  3.2km/h 2mph /  3.2km/h 94% 0in /  0.0mm 0 W/m2
03:51 42.3 °F /  5.7 °C 40.6 °F /  4.8 °C 30.2in /  1021.3hPa North 0.9mph /  1.4km/h 2mph /  3.2km/h 94% 0in /  0.0mm 0 W/m2
03:56 42.4 °F /  5.8 °C 40.8 °F /  4.9 °C 30.2in /  1021.3hPa NW 0.9mph /  1.4km/h 2mph /  3.2km/h 94% 0in /  0.0mm 0 W/m2
04:01 42.4 °F /  5.8 °C 40.8 °F /  4.9 °C 30.2in /  1021.3hPa Calm   2mph /  3.2km/h 94% 0in /  0.0mm 0 W/m2
04:06 42.4 °F /  5.8 °C 40.8 °F /  4.9 °C 30.2in /  1021.3hPa NNW 0.9mph /  1.4km/h 4mph /  6.4km/h 94% 0in /  0.0mm 0 W/m2
04:11 42.4 °F /  5.8 °C 40.8 °F /  4.9 °C 30.2in /  1021.0hPa WNW 0.9mph /  1.4km/h 6mph /  9.7km/h 94% 0in /  0.0mm 0 W/m2
04:16 42.4 °F /  5.8 °C 40.8 °F /  4.9 °C 30.2in /  1021.0hPa NW 4mph /  6.4km/h 5mph /  8km/h 94% 0in /  0.0mm 0 W/m2
04:21 42.4 °F /  5.8 °C 40.8 °F /  4.9 °C 30.2in /  1021.0hPa Calm   4mph /  6.4km/h 94% 0in /  0.0mm 0 W/m2
04:26 42.6 °F /  5.9 °C 41 °F /  5 °C 30.2in /  1021.0hPa WNW 4mph /  6.4km/h 5mph /  8km/h 94% 0in /  0.0mm 0 W/m2
04:31 42.6 °F /  5.9 °C 41 °F /  5 °C 30.2in /  1021.0hPa WNW 4mph /  6.4km/h 7mph /  11.3km/h 94% 0in /  0.0mm 0 W/m2
04:36 42.6 °F /  5.9 °C 41 °F /  5 °C 30.2in /  1021.0hPa North 2mph /  3.2km/h 3mph /  4.8km/h 94% 0in /  0.0mm 0 W/m2
04:41 42.6 °F /  5.9 °C 41 °F /  5 °C 30.1in /  1020.7hPa NNW 0.9mph /  1.4km/h 9mph /  14.5km/h 94% 0in /  0.0mm 0 W/m2
04:46 42.6 °F /  5.9 °C 41 °F /  5 °C 30.1in /  1020.7hPa NE 2mph /  3.2km/h 3mph /  4.8km/h 94% 0in /  0.0mm 0 W/m2
04:51 42.6 °F /  5.9 °C 41 °F /  5 °C 30.1in /  1020.7hPa WSW 8.1mph /  13km/h 9mph /  14.5km/h 94% 0in /  0.0mm 0 W/m2
04:56 42.6 °F /  5.9 °C 41 °F /  5 °C 30.1in /  1020.7hPa East 0.9mph /  1.4km/h 4mph /  6.4km/h 94% 0in /  0.0mm 0 W/m2
05:01 42.6 °F /  5.9 °C 41.4 °F /  5.2 °C 30.1in /  1020.7hPa NW 2mph /  3.2km/h 9mph /  14.5km/h 95% 0in /  0.0mm 0 W/m2
05:06 42.6 °F /  5.9 °C 41.4 °F /  5.2 °C 30.1in /  1020.7hPa Calm   4mph /  6.4km/h 95% 0in /  0.0mm 0 W/m2
05:11 42.6 °F /  5.9 °C 41.4 °F /  5.2 °C 30.1in /  1020.7hPa North 0.9mph /  1.4km/h 6mph /  9.7km/h 95% 0in /  0.0mm 0 W/m2
05:16 42.6 °F /  5.9 °C 41.4 °F /  5.2 °C 30.1in /  1020.7hPa NE 2mph /  3.2km/h 2mph /  3.2km/h 95% 0in /  0.0mm 0 W/m2
05:21 42.8 °F /  6 °C 41.5 °F /  5.3 °C 30.1in /  1020.7hPa WNW 2mph /  3.2km/h 4mph /  6.4km/h 95% 0in /  0.0mm 0 W/m2
05:26 42.8 °F /  6 °C 41.5 °F /  5.3 °C 30.1in /  1020.7hPa NE 2mph /  3.2km/h 2mph /  3.2km/h 95% 0in /  0.0mm 0 W/m2
05:31 42.8 °F /  6 °C 41.5 °F /  5.3 °C 30.1in /  1020.7hPa NE 0.9mph /  1.4km/h 2mph /  3.2km/h 95% 0in /  0.0mm 0 W/m2
05:36 43 °F /  6.1 °C 41.7 °F /  5.4 °C 30.1in /  1020.7hPa ENE 0.9mph /  1.4km/h 3mph /  4.8km/h 95% 0in /  0.0mm 0 W/m2
05:41 43 °F /  6.1 °C 41.7 °F /  5.4 °C 30.1in /  1020.7hPa NNW 2mph /  3.2km/h 5mph /  8km/h 95% 0in /  0.0mm 0 W/m2
05:46 43 °F /  6.1 °C 41.7 °F /  5.4 °C 30.1in /  1020.7hPa Calm   3mph /  4.8km/h 95% 0in /  0.0mm 0 W/m2
05:51 43 °F /  6.1 °C 41.7 °F /  5.4 °C 30.1in /  1020.7hPa Calm   5mph /  8km/h 95% 0in /  0.0mm 0 W/m2
05:56 43.2 °F /  6.2 °C 41.9 °F /  5.5 °C 30.1in /  1020.7hPa NNW 2mph /  3.2km/h 2mph /  3.2km/h 95% 0in /  0.0mm 0 W/m2
06:01 43.2 °F /  6.2 °C 41.9 °F /  5.5 °C 30.1in /  1020.7hPa West 0.9mph /  1.4km/h 4mph /  6.4km/h 95% 0in /  0.0mm 0 W/m2
06:06 43.3 °F /  6.3 °C 42.1 °F /  5.6 °C 30.1in /  1020.7hPa West 0.9mph /  1.4km/h 5mph /  8km/h 95% 0in /  0.0mm 0 W/m2
06:11 43.3 °F /  6.3 °C 42.1 °F /  5.6 °C 30.1in /  1020.3hPa ENE 0.9mph /  1.4km/h 2mph /  3.2km/h 95% 0in /  0.0mm 0 W/m2
06:16 43.3 °F /  6.3 °C 42.1 °F /  5.6 °C 30.1in /  1020.3hPa ENE 2mph /  3.2km/h 3mph /  4.8km/h 95% 0in /  0.0mm 0 W/m2
06:21 43.5 °F /  6.4 °C 42.3 °F /  5.7 °C 30.1in /  1020.3hPa NNW 2mph /  3.2km/h 3mph /  4.8km/h 95% 0in /  0.0mm 0 W/m2
06:26 43.5 °F /  6.4 °C 42.3 °F /  5.7 °C 30.1in /  1020.3hPa NNW 0.9mph /  1.4km/h 1mph /  1.6km/h 95% 0in /  0.0mm 0 W/m2
06:31 43.5 °F /  6.4 °C 42.3 °F /  5.7 °C 30.1in /  1020.3hPa NNE 2mph /  3.2km/h 2mph /  3.2km/h 95% 0in /  0.0mm 0 W/m2
06:36 43.5 °F /  6.4 °C 42.3 °F /  5.7 °C 30.1in /  1020.3hPa NNW 0.9mph /  1.4km/h 2mph /  3.2km/h 95% 0in /  0.0mm 0 W/m2
06:41 43.7 °F /  6.5 °C 42.4 °F /  5.8 °C 30.1in /  1020.0hPa Calm   2mph /  3.2km/h 95% 0in /  0.0mm 0 W/m2
06:46 43.9 °F /  6.6 °C 42.3 °F /  5.7 °C 30.1in /  1020.0hPa North 2mph /  3.2km/h 3mph /  4.8km/h 94% 0in /  0.0mm 0 W/m2
06:51 43.9 °F /  6.6 °C 42.3 °F /  5.7 °C 30.1in /  1020.0hPa Calm   2mph /  3.2km/h 94% 0in /  0.0mm 0 W/m2
06:56 43.9 °F /  6.6 °C 42.3 °F /  5.7 °C 30.1in /  1020.0hPa East 2mph /  3.2km/h 2mph /  3.2km/h 94% 0in /  0.0mm 0 W/m2
07:01 43.9 °F /  6.6 °C 42.3 °F /  5.7 °C 30.1in /  1020.0hPa NNE 2mph /  3.2km/h 4mph /  6.4km/h 94% 0in /  0.0mm 0 W/m2
07:06 43.9 °F /  6.6 °C 42.3 °F /  5.7 °C 30.1in /  1020.3hPa Calm   2mph /  3.2km/h 94% 0in /  0.0mm 0 W/m2
07:11 43.9 °F /  6.6 °C 42.3 °F /  5.7 °C 30.1in /  1020.0hPa North 0.9mph /  1.4km/h 3mph /  4.8km/h 94% 0in /  0.0mm 0 W/m2
07:16 43.9 °F /  6.6 °C 42.3 °F /  5.7 °C 30.1in /  1020.0hPa NNW 0.9mph /  1.4km/h 4mph /  6.4km/h 94% 0in /  0.0mm 0 W/m2
07:21 44.1 °F /  6.7 °C 42.4 °F /  5.8 °C 30.1in /  1020.0hPa NW 2.9mph /  4.7km/h 7mph /  11.3km/h 94% 0in /  0.0mm 0 W/m2
07:26 44.1 °F /  6.7 °C 42.4 °F /  5.8 °C 30.1in /  1020.0hPa NE 0.9mph /  1.4km/h 4mph /  6.4km/h 94% 0in /  0.0mm 0 W/m2
07:31 44.1 °F /  6.7 °C 42.4 °F /  5.8 °C 30.1in /  1020.0hPa NNW 0.9mph /  1.4km/h 3mph /  4.8km/h 94% 0in /  0.0mm 0 W/m2
07:36 44.1 °F /  6.7 °C 42.4 °F /  5.8 °C 30.1in /  1020.3hPa ENE 2mph /  3.2km/h 4mph /  6.4km/h 94% 0in /  0.0mm 0 W/m2
07:41 44.1 °F /  6.7 °C 42.4 °F /  5.8 °C 30.1in /  1020.0hPa WNW 0.9mph /  1.4km/h 9mph /  14.5km/h 94% 0in /  0.0mm 0 W/m2
07:46 44.2 °F /  6.8 °C 42.6 °F /  5.9 °C 30.1in /  1020.3hPa Calm   3mph /  4.8km/h 94% 0in /  0.0mm 0 W/m2
07:51 44.2 °F /  6.8 °C 42.6 °F /  5.9 °C 30.1in /  1020.3hPa WNW 0.9mph /  1.4km/h 5mph /  8km/h 94% 0in /  0.0mm 9 W/m2
07:56 44.2 °F /  6.8 °C 42.6 °F /  5.9 °C 30.1in /  1020.3hPa NNW 0.9mph /  1.4km/h 3mph /  4.8km/h 94% 0in /  0.0mm 12 W/m2
08:01 44.2 °F /  6.8 °C 42.6 °F /  5.9 °C 30.1in /  1020.3hPa East 2.9mph /  4.7km/h 3mph /  4.8km/h 94% 0in /  0.0mm 18 W/m2
08:06 44.2 °F /  6.8 °C 42.6 °F /  5.9 °C 30.1in /  1020.3hPa Calm   3mph /  4.8km/h 94% 0in /  0.0mm 14 W/m2
08:11 44.2 °F /  6.8 °C 42.6 °F /  5.9 °C 30.1in /  1020.3hPa Calm   1mph /  1.6km/h 94% 0in /  0.0mm 11 W/m2
08:16 44.2 °F /  6.8 °C 42.6 °F /  5.9 °C 30.1in /  1020.7hPa SW 0.9mph /  1.4km/h 4mph /  6.4km/h 94% 0in /  0.0mm 11 W/m2
08:21 44.4 °F /  6.9 °C 42.8 °F /  6 °C 30.1in /  1020.7hPa WNW 2.9mph /  4.7km/h 3mph /  4.8km/h 94% 0in /  0.0mm 11 W/m2
08:26 44.4 °F /  6.9 °C 42.4 °F /  5.8 °C 30.1in /  1020.3hPa Calm   1mph /  1.6km/h 93% 0in /  0.0mm 12 W/m2
08:31 44.4 °F /  6.9 °C 42.4 °F /  5.8 °C 30.1in /  1020.7hPa NNW 0.9mph /  1.4km/h 4mph /  6.4km/h 93% 0in /  0.0mm 14 W/m2
08:36 44.4 °F /  6.9 °C 42.4 °F /  5.8 °C 30.1in /  1020.7hPa Calm   3mph /  4.8km/h 93% 0in /  0.0mm 18 W/m2
08:41 44.6 °F /  7 °C 42.6 °F /  5.9 °C 30.1in /  1020.7hPa ENE 2mph /  3.2km/h 4mph /  6.4km/h 93% 0in /  0.0mm 30 W/m2
08:46 44.6 °F /  7 °C 42.6 °F /  5.9 °C 30.1in /  1020.7hPa NE 0.9mph /  1.4km/h 4mph /  6.4km/h 93% 0in /  0.0mm 21 W/m2
08:51 44.6 °F /  7 °C 42.6 °F /  5.9 °C 30.1in /  1020.7hPa NNW 2.9mph /  4.7km/h 3mph /  4.8km/h 93% 0in /  0.0mm 21 W/m2
08:56 44.8 °F /  7.1 °C 42.8 °F /  6 °C 30.1in /  1020.7hPa NNE 2.9mph /  4.7km/h 3mph /  4.8km/h 93% 0in /  0.0mm 30 W/m2
09:01 44.8 °F /  7.1 °C 42.8 °F /  6 °C 30.1in /  1020.7hPa Calm   3mph /  4.8km/h 93% 0in /  0.0mm 30 W/m2
09:06 44.8 °F /  7.1 °C 42.8 °F /  6 °C 30.1in /  1020.7hPa NE 4.9mph /  7.9km/h 5mph /  8km/h 93% 0in /  0.0mm 18 W/m2
09:11 44.8 °F /  7.1 °C 42.8 °F /  6 °C 30.1in /  1020.7hPa SSW 2mph /  3.2km/h 3mph /  4.8km/h 93% 0in /  0.0mm 28 W/m2
09:16 44.8 °F /  7.1 °C 42.8 °F /  6 °C 30.1in /  1020.7hPa West 2.9mph /  4.7km/h 7mph /  11.3km/h 93% 0in /  0.0mm 44 W/m2
09:21 44.8 °F /  7.1 °C 42.8 °F /  6 °C 30.1in /  1020.7hPa Calm   3mph /  4.8km/h 93% 0in /  0.0mm 63 W/m2
09:26 44.8 °F /  7.1 °C 42.8 °F /  6 °C 30.1in /  1020.7hPa NNW 0.9mph /  1.4km/h 6mph /  9.7km/h 93% 0in /  0.0mm 62 W/m2
09:31 45 °F /  7.2 °C 43 °F /  6.1 °C 30.1in /  1020.7hPa Calm   2mph /  3.2km/h 93% 0in /  0.0mm 70 W/m2
09:36 45 °F /  7.2 °C 43 °F /  6.1 °C 30.1in /  1020.7hPa WSW 2mph /  3.2km/h 4mph /  6.4km/h 93% 0in /  0.0mm 79 W/m2
09:41 45 °F /  7.2 °C 43 °F /  6.1 °C 30.1in /  1020.7hPa NNW 2.9mph /  4.7km/h 3mph /  4.8km/h 93% 0in /  0.0mm 70 W/m2
09:46 45.1 °F /  7.3 °C 43.2 °F /  6.2 °C 30.1in /  1020.3hPa WSW 0.9mph /  1.4km/h 4mph /  6.4km/h 93% 0in /  0.0mm 95 W/m2
09:51 45.1 °F /  7.3 °C 43.2 °F /  6.2 °C 30.1in /  1020.3hPa Calm     93% 0in /  0.0mm 53 W/m2
09:56 45.1 °F /  7.3 °C 43.2 °F /  6.2 °C 30.1in /  1020.3hPa Calm   1mph /  1.6km/h 93% 0in /  0.0mm 63 W/m2
10:01 45.3 °F /  7.4 °C 43.3 °F /  6.3 °C 30.1in /  1020.3hPa ENE 0.9mph /  1.4km/h 2mph /  3.2km/h 93% 0in /  0.0mm 107 W/m2
10:06 45.3 °F /  7.4 °C 43.3 °F /  6.3 °C 30.1in /  1020.3hPa NNE 0.9mph /  1.4km/h 3mph /  4.8km/h 93% 0in /  0.0mm 121 W/m2
10:11 45.5 °F /  7.5 °C 43.5 °F /  6.4 °C 30.1in /  1020.3hPa Calm   7mph /  11.3km/h 93% 0in /  0.0mm 148 W/m2
10:16 45.7 °F /  7.6 °C 43.5 °F /  6.4 °C 30.1in /  1020.3hPa Calm   2mph /  3.2km/h 92% 0in /  0.0mm 107 W/m2
10:21 45.7 °F /  7.6 °C 43.5 °F /  6.4 °C 30.1in /  1020.0hPa NW 2mph /  3.2km/h 3mph /  4.8km/h 92% 0in /  0.0mm 98 W/m2
10:26 45.9 °F /  7.7 °C 43.7 °F /  6.5 °C 30.1in /  1020.0hPa NE 2mph /  3.2km/h 4mph /  6.4km/h 92% 0in /  0.0mm 77 W/m2
10:31 45.9 °F /  7.7 °C 43.7 °F /  6.5 °C 30.1in /  1020.0hPa NW 2mph /  3.2km/h 6mph /  9.7km/h 92% 0in /  0.0mm 144 W/m2
10:36 45.9 °F /  7.7 °C 43.7 °F /  6.5 °C 30.1in /  1020.0hPa West 2mph /  3.2km/h 3mph /  4.8km/h 92% 0in /  0.0mm 132 W/m2
10:41 45.9 °F /  7.7 °C 43.7 °F /  6.5 °C 30.1in /  1020.0hPa North 0.9mph /  1.4km/h 1mph /  1.6km/h 92% 0in /  0.0mm 165 W/m2
10:46 45.9 °F /  7.7 °C 43.7 °F /  6.5 °C 30.1in /  1020.0hPa WSW 2.9mph /  4.7km/h 3mph /  4.8km/h 92% 0in /  0.0mm 135 W/m2
10:51 46 °F /  7.8 °C 43.5 °F /  6.4 °C 30.1in /  1020.0hPa ENE 2mph /  3.2km/h 5mph /  8km/h 91% 0.01in /  0.2mm 148 W/m2
10:56 46 °F /  7.8 °C 43.5 °F /  6.4 °C 30.1in /  1020.0hPa Calm   3mph /  4.8km/h 91% 0.01in /  0.2mm 123 W/m2
11:01 46 °F /  7.8 °C 43.5 °F /  6.4 °C 30.1in /  1020.0hPa WSW 4.9mph /  7.9km/h 9mph /  14.5km/h 91% 0.01in /  0.2mm 135 W/m2
11:06 46 °F /  7.8 °C 43.5 °F /  6.4 °C 30.1in /  1020.0hPa ENE 6.9mph /  11.1km/h 7mph /  11.3km/h 91% 0.01in /  0.2mm 121 W/m2
11:11 46 °F /  7.8 °C 43.3 °F /  6.3 °C 30.1in /  1020.0hPa WNW 4.9mph /  7.9km/h 8mph /  12.9km/h 90% 0.01in /  0.2mm 67 W/m2
11:16 46 °F /  7.8 °C 43.5 °F /  6.4 °C 30.1in /  1020.0hPa SW 2.9mph /  4.7km/h 4mph /  6.4km/h 91% 0.01in /  0.2mm 62 W/m2
11:21 45.9 °F /  7.7 °C 43.3 °F /  6.3 °C 30.1in /  1020.0hPa NW 4mph /  6.4km/h 7mph /  11.3km/h 91% 0.01in /  0.2mm 137 W/m2
11:26 45.9 °F /  7.7 °C 43.3 °F /  6.3 °C 30.1in /  1020.0hPa NW 2.9mph /  4.7km/h 5mph /  8km/h 91% 0.01in /  0.2mm 44 W/m2
11:31 45.9 °F /  7.7 °C 43.3 °F /  6.3 °C 30.1in /  1020.0hPa NW 2.9mph /  4.7km/h 4mph /  6.4km/h 91% 0.01in /  0.2mm 109 W/m2
11:36 45.7 °F /  7.6 °C 43.2 °F /  6.2 °C 30.1in /  1020.0hPa WSW 4mph /  6.4km/h 7mph /  11.3km/h 91% 0.01in /  0.2mm 76 W/m2
11:41 45.7 °F /  7.6 °C 43.2 °F /  6.2 °C 30.1in /  1020.0hPa NW 0.9mph /  1.4km/h 4mph /  6.4km/h 91% 0.01in /  0.2mm 46 W/m2
11:46 45.7 °F /  7.6 °C 43.2 °F /  6.2 °C 30.1in /  1019.6hPa ENE 2mph /  3.2km/h 7mph /  11.3km/h 91% 0.01in /  0.2mm 28 W/m2
11:51 45.7 °F /  7.6 °C 43.2 °F /  6.2 °C 30.1in /  1020.0hPa WSW 0.9mph /  1.4km/h 2mph /  3.2km/h 91% 0in /  0.0mm 74 W/m2
11:56 45.7 °F /  7.6 °C 43 °F /  6.1 °C 30.1in /  1019.6hPa South 2mph /  3.2km/h 7mph /  11.3km/h 90% 0in /  0.0mm 107 W/m2
12:02 45.9 °F /  7.7 °C 43.2 °F /  6.2 °C 30.1in /  1019.6hPa West 2mph /  3.2km/h 2mph /  3.2km/h 90% 0in /  0.0mm 97 W/m2
12:07 45.9 °F /  7.7 °C 43.2 °F /  6.2 °C 30.1in /  1019.6hPa NW 2mph /  3.2km/h 3mph /  4.8km/h 90% 0in /  0.0mm 90 W/m2
12:12 46 °F /  7.8 °C 43.3 °F /  6.3 °C 30.1in /  1019.6hPa WNW 2mph /  3.2km/h 3mph /  4.8km/h 90% 0in /  0.0mm 102 W/m2
12:17 46 °F /  7.8 °C 43 °F /  6.1 °C 30.1in /  1019.6hPa North 2mph /  3.2km/h 3mph /  4.8km/h 89% 0in /  0.0mm 83 W/m2
12:22 46 °F /  7.8 °C 42.6 °F /  5.9 °C 30.1in /  1019.6hPa ESE 2.9mph /  4.7km/h 5mph /  8km/h 88% 0in /  0.0mm 69 W/m2
12:27 46.2 °F /  7.9 °C 42.8 °F /  6 °C 30.1in /  1019.6hPa WNW 4mph /  6.4km/h 6mph /  9.7km/h 88% 0in /  0.0mm 83 W/m2
12:32 46.2 °F /  7.9 °C 42.6 °F /  5.9 °C 30.1in /  1019.3hPa Calm   4mph /  6.4km/h 87% 0in /  0.0mm 90 W/m2
12:37 46.2 °F /  7.9 °C 42.6 °F /  5.9 °C 30.1in /  1019.3hPa WSW 6.9mph /  11.1km/h 10mph /  16.1km/h 87% 0in /  0.0mm 76 W/m2
12:42 46.4 °F /  8 °C 42.8 °F /  6 °C 30.1in /  1019.3hPa NW 0.9mph /  1.4km/h 4mph /  6.4km/h 87% 0in /  0.0mm 76 W/m2
12:47 46.4 °F /  8 °C 42.4 °F /  5.8 °C 30.1in /  1019.3hPa West 10mph /  16.1km/h 10mph /  16.1km/h 86% 0in /  0.0mm 90 W/m2
12:52 46.6 °F /  8.1 °C 42.6 °F /  5.9 °C 30.1in /  1019.3hPa East 4mph /  6.4km/h 6mph /  9.7km/h 86% 0in /  0.0mm 83 W/m2
12:57 46.6 °F /  8.1 °C 42.3 °F /  5.7 °C 30.1in /  1019.3hPa ESE 7mph /  11.3km/h 7mph /  11.3km/h 85% 0in /  0.0mm 95 W/m2
13:02 46.8 °F /  8.2 °C 42.3 °F /  5.7 °C 30.1in /  1019.3hPa SSE 2mph /  3.2km/h 4mph /  6.4km/h 84% 0in /  0.0mm 130 W/m2
13:07 46.9 °F /  8.3 °C 42.4 °F /  5.8 °C 30.1in /  1019.0hPa WNW 4mph /  6.4km/h 4mph /  6.4km/h 84% 0in /  0.0mm 248 W/m2
13:12 47.1 °F /  8.4 °C 42.3 °F /  5.7 °C 30.1in /  1019.0hPa SSW 2mph /  3.2km/h 6mph /  9.7km/h 83% 0in /  0.0mm 199 W/m2
13:17 47.5 °F /  8.6 °C 42.3 °F /  5.7 °C 30.1in /  1019.0hPa South 2mph /  3.2km/h 4mph /  6.4km/h 82% 0in /  0.0mm 186 W/m2
13:22 47.7 °F /  8.7 °C 42.4 °F /  5.8 °C 30.1in /  1019.0hPa WNW 2.9mph /  4.7km/h 4mph /  6.4km/h 82% 0in /  0.0mm 90 W/m2
13:27 47.5 °F /  8.6 °C 41.5 °F /  5.3 °C 30.1in /  1018.6hPa WNW 6.9mph /  11.1km/h 11mph /  17.7km/h 80% 0in /  0.0mm 137 W/m2
13:32 47.5 °F /  8.6 °C 41.5 °F /  5.3 °C 30.1in /  1018.6hPa WNW 6.9mph /  11.1km/h 10mph /  16.1km/h 80% 0in /  0.0mm 100 W/m2
13:37 47.5 °F /  8.6 °C 41.5 °F /  5.3 °C 30.1in /  1018.6hPa SSE 6mph /  9.7km/h 6mph /  9.7km/h 80% 0in /  0.0mm 167 W/m2
13:42 47.5 °F /  8.6 °C 41.5 °F /  5.3 °C 30.1in /  1018.6hPa NW 4mph /  6.4km/h 10mph /  16.1km/h 80% 0in /  0.0mm 100 W/m2
13:47 47.5 °F /  8.6 °C 41.5 °F /  5.3 °C 30.1in /  1018.6hPa NW 8.1mph /  13km/h 10mph /  16.1km/h 80% 0in /  0.0mm 102 W/m2
13:52 47.5 °F /  8.6 °C 41.5 °F /  5.3 °C 30.1in /  1018.6hPa SW 2mph /  3.2km/h 6mph /  9.7km/h 80% 0in /  0.0mm 60 W/m2
13:57 47.5 °F /  8.6 °C 41.5 °F /  5.3 °C 30.1in /  1018.6hPa West 4mph /  6.4km/h 10mph /  16.1km/h 80% 0in /  0.0mm 67 W/m2
14:02 47.3 °F /  8.5 °C 41.4 °F /  5.2 °C 30.1in /  1018.3hPa SSW 2mph /  3.2km/h 3mph /  4.8km/h 80% 0in /  0.0mm 51 W/m2
14:07 47.1 °F /  8.4 °C 41.4 °F /  5.2 °C 30.1in /  1018.3hPa WNW 2mph /  3.2km/h 7mph /  11.3km/h 80% 0in /  0.0mm 63 W/m2
14:12 47.1 °F /  8.4 °C 41.4 °F /  5.2 °C 30.1in /  1018.3hPa NW 2.9mph /  4.7km/h 3mph /  4.8km/h 80% 0in /  0.0mm 58 W/m2
14:17 47.1 °F /  8.4 °C 41.5 °F /  5.3 °C 30.1in /  1018.3hPa North 2.9mph /  4.7km/h 3mph /  4.8km/h 81% 0in /  0.0mm 120 W/m2
14:22 47.3 °F /  8.5 °C 41.7 °F /  5.4 °C 30.1in /  1018.3hPa ESE 6mph /  9.7km/h 7mph /  11.3km/h 81% 0in /  0.0mm 135 W/m2
14:27 47.3 °F /  8.5 °C 41.7 °F /  5.4 °C 30.1in /  1018.3hPa NW 2mph /  3.2km/h 8mph /  12.9km/h 81% 0in /  0.0mm 120 W/m2
14:32 47.5 °F /  8.6 °C 41.9 °F /  5.5 °C 30.1in /  1018.0hPa WNW 2.9mph /  4.7km/h 4mph /  6.4km/h 81% 0in /  0.0mm 209 W/m2
14:37 47.7 °F /  8.7 °C 41.7 °F /  5.4 °C 30.1in /  1018.0hPa West 2mph /  3.2km/h 7mph /  11.3km/h 80% 0in /  0.0mm 179 W/m2
14:42 47.8 °F /  8.8 °C 41.9 °F /  5.5 °C 30.1in /  1018.0hPa Calm   5mph /  8km/h 80% 0in /  0.0mm 174 W/m2
14:47 47.8 °F /  8.8 °C 41.7 °F /  5.4 °C 30.1in /  1017.6hPa NW 0.9mph /  1.4km/h 9mph /  14.5km/h 79% 0in /  0.0mm 155 W/m2
14:52 48 °F /  8.9 °C 41.9 °F /  5.5 °C 30.1in /  1017.6hPa West 0.9mph /  1.4km/h 4mph /  6.4km/h 79% 0in /  0.0mm 97 W/m2
14:57 48 °F /  8.9 °C 41.9 °F /  5.5 °C 30.1in /  1017.6hPa West 2mph /  3.2km/h 11mph /  17.7km/h 79% 0in /  0.0mm 102 W/m2
15:02 47.8 °F /  8.8 °C 41.7 °F /  5.4 °C 30.1in /  1017.6hPa NW 6.9mph /  11.1km/h 7mph /  11.3km/h 79% 0in /  0.0mm 72 W/m2
15:07 47.8 °F /  8.8 °C 41.7 °F /  5.4 °C 30.1in /  1017.6hPa WNW 4mph /  6.4km/h 13mph /  20.9km/h 79% 0in /  0.0mm 54 W/m2
15:12 47.7 °F /  8.7 °C 41.5 °F /  5.3 °C 30.1in /  1017.6hPa NNW 8.9mph /  14.3km/h 10mph /  16.1km/h 79% 0in /  0.0mm 53 W/m2
15:17 47.7 °F /  8.7 °C 41.5 °F /  5.3 °C 30.1in /  1018.0hPa NE 2.9mph /  4.7km/h 12mph /  19.3km/h 79% 0in /  0.0mm 40 W/m2
15:22 47.7 °F /  8.7 °C 41.7 °F /  5.4 °C 30.1in /  1017.6hPa Calm   8mph /  12.9km/h 80% 0in /  0.0mm 141 W/m2
15:27 47.7 °F /  8.7 °C 41.7 °F /  5.4 °C 30.1in /  1017.6hPa WSW 4mph /  6.4km/h 4mph /  6.4km/h 80% 0in /  0.0mm 127 W/m2
15:32 47.7 °F /  8.7 °C 41.5 °F /  5.3 °C 30.1in /  1017.6hPa West 4mph /  6.4km/h 6mph /  9.7km/h 79% 0in /  0.0mm 121 W/m2
15:37 47.8 °F /  8.8 °C 41.7 °F /  5.4 °C 30in /  1017.3hPa North 2mph /  3.2km/h 4mph /  6.4km/h 79% 0in /  0.0mm 118 W/m2
15:42 48 °F /  8.9 °C 41.5 °F /  5.3 °C 30in /  1017.3hPa NNE 0.9mph /  1.4km/h 9mph /  14.5km/h 78% 0in /  0.0mm 100 W/m2
15:47 48 °F /  8.9 °C 41.2 °F /  5.1 °C 30in /  1017.3hPa NNW 2mph /  3.2km/h 3mph /  4.8km/h 77% 0in /  0.0mm 98 W/m2
15:52 48.2 °F /  9 °C 41.4 °F /  5.2 °C 30in /  1017.3hPa NW 6mph /  9.7km/h 14mph /  22.5km/h 77% 0in /  0.0mm 100 W/m2
15:57 48.2 °F /  9 °C 40.6 °F /  4.8 °C 30in /  1016.9hPa West 4mph /  6.4km/h 7mph /  11.3km/h 75% 0in /  0.0mm 105 W/m2
16:02 48.4 °F /  9.1 °C 40.8 °F /  4.9 °C 30in /  1016.9hPa SSE 4mph /  6.4km/h 14mph /  22.5km/h 75% 0in /  0.0mm 95 W/m2
16:07 48.4 °F /  9.1 °C 40.8 °F /  4.9 °C 30in /  1016.9hPa West 8.1mph /  13km/h 8mph /  12.9km/h 75% 0in /  0.0mm 76 W/m2
16:13 48.4 °F /  9.1 °C 40.8 °F /  4.9 °C 30in /  1016.9hPa WNW 4.9mph /  7.9km/h 14mph /  22.5km/h 75% 0in /  0.0mm 72 W/m2
16:18 48.2 °F /  9 °C 40.6 °F /  4.8 °C 30in /  1016.9hPa NE 2.9mph /  4.7km/h 5mph /  8km/h 75% 0in /  0.0mm 65 W/m2
16:23 48.2 °F /  9 °C 40.6 °F /  4.8 °C 30in /  1016.9hPa NE 4.9mph /  7.9km/h 6mph /  9.7km/h 75% 0in /  0.0mm 53 W/m2
16:28 48.2 °F /  9 °C 40.6 °F /  4.8 °C 30in /  1016.9hPa Calm   4mph /  6.4km/h 75% 0in /  0.0mm 56 W/m2
16:33 48.2 °F /  9 °C 40.6 °F /  4.8 °C 30in /  1016.9hPa NW 2.9mph /  4.7km/h 3mph /  4.8km/h 75% 0in /  0.0mm 51 W/m2
16:38 48.2 °F /  9 °C 40.6 °F /  4.8 °C 30in /  1016.9hPa WNW 6.9mph /  11.1km/h 7mph /  11.3km/h 75% 0in /  0.0mm 42 W/m2
16:43 48 °F /  8.9 °C 40.5 °F /  4.7 °C 30in /  1016.9hPa NE 2.9mph /  4.7km/h 9mph /  14.5km/h 75% 0in /  0.0mm 42 W/m2
16:48 48.2 °F /  9 °C 40.6 °F /  4.8 °C 30in /  1016.6hPa NW 2mph /  3.2km/h 4mph /  6.4km/h 75% 0in /  0.0mm 39 W/m2
16:53 48 °F /  8.9 °C 40.5 °F /  4.7 °C 30in /  1016.6hPa WNW 4.9mph /  7.9km/h 7mph /  11.3km/h 75% 0in /  0.0mm 33 W/m2
16:58 48 °F /  8.9 °C 40.5 °F /  4.7 °C 30in /  1016.6hPa NNW 0.9mph /  1.4km/h 2mph /  3.2km/h 75% 0in /  0.0mm 33 W/m2
17:03 48 °F /  8.9 °C 40.5 °F /  4.7 °C 30in /  1016.6hPa WNW 6.9mph /  11.1km/h 7mph /  11.3km/h 75% 0in /  0.0mm 26 W/m2
17:08 48 °F /  8.9 °C 40.5 °F /  4.7 °C 30in /  1016.3hPa North 4mph /  6.4km/h 6mph /  9.7km/h 75% 0in /  0.0mm 32 W/m2
17:13 48 °F /  8.9 °C 40.5 °F /  4.7 °C 30in /  1016.3hPa WNW 2mph /  3.2km/h 3mph /  4.8km/h 75% 0in /  0.0mm 32 W/m2
17:18 48 °F /  8.9 °C 40.5 °F /  4.7 °C 30in /  1015.9hPa NE 4mph /  6.4km/h 4mph /  6.4km/h 75% 0in /  0.0mm 28 W/m2
17:23 48 °F /  8.9 °C 40.5 °F /  4.7 °C 30in /  1016.3hPa East 2mph /  3.2km/h 9mph /  14.5km/h 75% 0in /  0.0mm 23 W/m2
17:28 48 °F /  8.9 °C 40.5 °F /  4.7 °C 30in /  1015.9hPa ENE 2.9mph /  4.7km/h 4mph /  6.4km/h 75% 0in /  0.0mm 16 W/m2
17:33 48 °F /  8.9 °C 40.5 °F /  4.7 °C 30in /  1016.3hPa NW 0.9mph /  1.4km/h 9mph /  14.5km/h 75% 0in /  0.0mm 12 W/m2
17:38 48 °F /  8.9 °C 40.5 °F /  4.7 °C 30in /  1016.3hPa WSW 2.9mph /  4.7km/h 7mph /  11.3km/h 75% 0in /  0.0mm 9 W/m2
17:44 47.8 °F /  8.8 °C 40.3 °F /  4.6 °C 30in /  1015.9hPa North 4mph /  6.4km/h 8mph /  12.9km/h 75% 0in /  0.0mm 7 W/m2
17:49 47.8 °F /  8.8 °C 40.3 °F /  4.6 °C 30in /  1016.3hPa West 6.9mph /  11.1km/h 15mph /  24.1km/h 75% 0in /  0.0mm 5 W/m2
17:54 47.8 °F /  8.8 °C 40.3 °F /  4.6 °C 30in /  1015.9hPa NW 2mph /  3.2km/h 5mph /  8km/h 75% 0in /  0.0mm 0 W/m2
17:59 47.8 °F /  8.8 °C 40.3 °F /  4.6 °C 30in /  1016.3hPa NW 2mph /  3.2km/h 15mph /  24.1km/h 75% 0in /  0.0mm 0 W/m2
18:04 47.8 °F /  8.8 °C 40.3 °F /  4.6 °C 30in /  1016.3hPa NW 6mph /  9.7km/h 10mph /  16.1km/h 75% 0in /  0.0mm 0 W/m2
18:09 47.8 °F /  8.8 °C 39.9 °F /  4.4 °C 30in /  1015.9hPa NW 4.9mph /  7.9km/h 9mph /  14.5km/h 74% 0in /  0.0mm 0 W/m2
18:14 47.8 °F /  8.8 °C 39.9 °F /  4.4 °C 30in /  1015.9hPa West 0.9mph /  1.4km/h 9mph /  14.5km/h 74% 0in /  0.0mm 0 W/m2
18:19 47.8 °F /  8.8 °C 39.9 °F /  4.4 °C 30in /  1016.3hPa NW 4mph /  6.4km/h 7mph /  11.3km/h 74% 0in /  0.0mm 0 W/m2
18:24 47.8 °F /  8.8 °C 39.9 °F /  4.4 °C 30in /  1015.9hPa North 0.9mph /  1.4km/h 6mph /  9.7km/h 74% 0in /  0.0mm 0 W/m2
18:29 47.8 °F /  8.8 °C 39.9 °F /  4.4 °C 30in /  1015.9hPa NNW 2mph /  3.2km/h 5mph /  8km/h 74% 0in /  0.0mm 0 W/m2
18:34 47.8 °F /  8.8 °C 40.3 °F /  4.6 °C 30in /  1015.9hPa NNW 2mph /  3.2km/h 8mph /  12.9km/h 75% 0in /  0.0mm 0 W/m2
18:39 47.7 °F /  8.7 °C 40.1 °F /  4.5 °C 30in /  1015.9hPa East 8.9mph /  14.3km/h 9mph /  14.5km/h 75% 0in /  0.0mm 0 W/m2
18:44 47.7 °F /  8.7 °C 40.1 °F /  4.5 °C 30in /  1015.9hPa NW 2.9mph /  4.7km/h 3mph /  4.8km/h 75% 0in /  0.0mm 0 W/m2
18:49 47.7 °F /  8.7 °C 40.1 °F /  4.5 °C 30in /  1015.9hPa NNW 4mph /  6.4km/h 9mph /  14.5km/h 75% 0in /  0.0mm 0 W/m2
18:54 47.8 °F /  8.8 °C 39.9 °F /  4.4 °C 30in /  1015.9hPa WNW 2mph /  3.2km/h 8mph /  12.9km/h 74% 0in /  0.0mm 0 W/m2
18:59 47.8 °F /  8.8 °C 39.9 °F /  4.4 °C 30in /  1015.9hPa WNW 2.9mph /  4.7km/h 4mph /  6.4km/h 74% 0in /  0.0mm 0 W/m2
19:04 47.8 °F /  8.8 °C 39.9 °F /  4.4 °C 30in /  1015.6hPa NNE 2.9mph /  4.7km/h 5mph /  8km/h 74% 0in /  0.0mm 0 W/m2
19:09 47.8 °F /  8.8 °C 39.9 °F /  4.4 °C 30in /  1015.6hPa ENE 2mph /  3.2km/h 4mph /  6.4km/h 74% 0in /  0.0mm 0 W/m2
19:14 47.8 °F /  8.8 °C 39.9 °F /  4.4 °C 30in /  1015.6hPa WSW 4mph /  6.4km/h 8mph /  12.9km/h 74% 0in /  0.0mm 0 W/m2
19:19 47.8 °F /  8.8 °C 39.9 °F /  4.4 °C 30in /  1015.6hPa NNE 2mph /  3.2km/h 7mph /  11.3km/h 74% 0in /  0.0mm 0 W/m2
19:24 47.8 °F /  8.8 °C 39.9 °F /  4.4 °C 30in /  1015.6hPa WNW 2.9mph /  4.7km/h 7mph /  11.3km/h 74% 0in /  0.0mm 0 W/m2
19:29 47.8 °F /  8.8 °C 40.3 °F /  4.6 °C 30in /  1015.2hPa WNW 2.9mph /  4.7km/h 4mph /  6.4km/h 75% 0in /  0.0mm 0 W/m2
19:34 47.8 °F /  8.8 °C 39.9 °F /  4.4 °C 30in /  1015.2hPa NE 0.9mph /  1.4km/h 9mph /  14.5km/h 74% 0in /  0.0mm 0 W/m2
19:39 47.8 °F /  8.8 °C 39.9 °F /  4.4 °C 30in /  1015.2hPa NW 6mph /  9.7km/h 12mph /  19.3km/h 74% 0in /  0.0mm 0 W/m2
19:44 48 °F /  8.9 °C 40.5 °F /  4.7 °C 30in /  1015.2hPa WNW 4.9mph /  7.9km/h 15mph /  24.1km/h 75% 0in /  0.0mm 0 W/m2
19:49 48 °F /  8.9 °C 40.1 °F /  4.5 °C 30in /  1015.2hPa West 6mph /  9.7km/h 6mph /  9.7km/h 74% 0in /  0.0mm 0 W/m2
19:54 48 °F /  8.9 °C 40.1 °F /  4.5 °C 30in /  1015.2hPa WNW 4.9mph /  7.9km/h 12mph /  19.3km/h 74% 0in /  0.0mm 0 W/m2
19:59 48.2 °F /  9 °C 40.3 °F /  4.6 °C 30in /  1015.2hPa North 2mph /  3.2km/h 9mph /  14.5km/h 74% 0in /  0.0mm 0 W/m2
20:04 48 °F /  8.9 °C 40.5 °F /  4.7 °C 30in /  1015.2hPa WNW 6mph /  9.7km/h 9mph /  14.5km/h 75% 0in /  0.0mm 0 W/m2
20:09 48 °F /  8.9 °C 40.5 °F /  4.7 °C 30in /  1014.9hPa West 8.1mph /  13km/h 11mph /  17.7km/h 75% 0in /  0.0mm 0 W/m2
20:14 48 °F /  8.9 °C 40.8 °F /  4.9 °C 30in /  1015.2hPa North 2.9mph /  4.7km/h 3mph /  4.8km/h 76% 0in /  0.0mm 0 W/m2
20:19 47.8 °F /  8.8 °C 41.4 °F /  5.2 °C 30in /  1015.2hPa WSW 10.1mph /  16.3km/h 11mph /  17.7km/h 78% 0.01in /  0.2mm 0 W/m2
20:24 47.7 °F /  8.7 °C 41.7 °F /  5.4 °C 30in /  1015.2hPa SW 4mph /  6.4km/h 5mph /  8km/h 80% 0.02in /  0.5mm 0 W/m2
20:29 47.1 °F /  8.4 °C 41.9 °F /  5.5 °C 30in /  1015.2hPa East 4mph /  6.4km/h 10mph /  16.1km/h 82% 0.03in /  0.8mm 0 W/m2
20:34 46.8 °F /  8.2 °C 41.9 °F /  5.5 °C 30in /  1015.2hPa NW 2.9mph /  4.7km/h 9mph /  14.5km/h 83% 0.03in /  0.8mm 0 W/m2
20:39 46.6 °F /  8.1 °C 42.1 °F /  5.6 °C 30in /  1015.2hPa NW 2.9mph /  4.7km/h 6mph /  9.7km/h 84% 0.04in /  1.0mm 0 W/m2
20:44 46.6 °F /  8.1 °C 42.3 °F /  5.7 °C 30in /  1015.2hPa North 4.9mph /  7.9km/h 9mph /  14.5km/h 85% 0.05in /  1.3mm 0 W/m2
20:49 46.4 °F /  8 °C 42.4 °F /  5.8 °C 30in /  1015.2hPa North 2.9mph /  4.7km/h 7mph /  11.3km/h 86% 0.05in /  1.3mm 0 W/m2
20:54 46.2 °F /  7.9 °C 42.6 °F /  5.9 °C 30in /  1015.2hPa NE 0.9mph /  1.4km/h 17mph /  27.4km/h 87% 0.06in /  1.5mm 0 W/m2
21:00 46 °F /  7.8 °C 42.4 °F /  5.8 °C 30in /  1015.2hPa WNW 8.9mph /  14.3km/h 12mph /  19.3km/h 87% 0.06in /  1.5mm 0 W/m2
21:05 46 °F /  7.8 °C 42.6 °F /  5.9 °C 30in /  1015.6hPa SSW 4mph /  6.4km/h 17mph /  27.4km/h 88% 0.06in /  1.5mm 0 W/m2
21:10 46 °F /  7.8 °C 43 °F /  6.1 °C 30in /  1015.6hPa WSW 2mph /  3.2km/h 4mph /  6.4km/h 89% 0.07in /  1.8mm 0 W/m2
21:15 46 °F /  7.8 °C 43 °F /  6.1 °C 30in /  1015.6hPa South 0.9mph /  1.4km/h 9mph /  14.5km/h 89% 0.08in /  2.0mm 0 W/m2
21:20 45.9 °F /  7.7 °C 43.2 °F /  6.2 °C 30in /  1015.9hPa ESE 2mph /  3.2km/h 3mph /  4.8km/h 90% 0.08in /  2.0mm 0 W/m2
21:25 45.9 °F /  7.7 °C 43.2 °F /  6.2 °C 30in /  1015.9hPa North 2mph /  3.2km/h 8mph /  12.9km/h 90% 0.07in /  1.8mm 0 W/m2
21:30 45.9 °F /  7.7 °C 43.3 °F /  6.3 °C 30in /  1016.3hPa WNW 0.9mph /  1.4km/h 15mph /  24.1km/h 91% 0.07in /  1.8mm 0 W/m2
21:35 45.9 °F /  7.7 °C 43.3 °F /  6.3 °C 30in /  1016.3hPa NW 4mph /  6.4km/h 9mph /  14.5km/h 91% 0.09in /  2.3mm 0 W/m2
21:40 45.9 °F /  7.7 °C 43.3 °F /  6.3 °C 30in /  1016.9hPa West 25.1mph /  40.4km/h 27mph /  43.5km/h 91% 0.1in /  2.5mm 0 W/m2
21:45 45.1 °F /  7.3 °C 42.4 °F /  5.8 °C 30in /  1017.3hPa WNW 11mph /  17.7km/h 20mph /  32.2km/h 90% 0.11in /  2.8mm 0 W/m2
21:50 44.2 °F /  6.8 °C 41 °F /  5 °C 30in /  1017.3hPa West 8.9mph /  14.3km/h 27mph /  43.5km/h 88% 0.11in /  2.8mm 0 W/m2
21:55 43.5 °F /  6.4 °C 40.5 °F /  4.7 °C 30.1in /  1017.6hPa WSW 10.1mph /  16.3km/h 14mph /  22.5km/h 89% 0.1in /  2.5mm 0 W/m2
22:00 43.2 °F /  6.2 °C 39.9 °F /  4.4 °C 30.1in /  1017.6hPa WSW 17.9mph /  28.8km/h 21mph /  33.8km/h 88% 0.09in /  2.3mm 0 W/m2
22:05 42.8 °F /  6 °C 39.6 °F /  4.2 °C 30.1in /  1018.0hPa West 10.1mph /  16.3km/h 17mph /  27.4km/h 88% 0.09in /  2.3mm 0 W/m2
22:10 42.6 °F /  5.9 °C 39.4 °F /  4.1 °C 30.1in /  1018.0hPa West 6mph /  9.7km/h 13mph /  20.9km/h 88% 0.09in /  2.3mm 0 W/m2
22:15 42.4 °F /  5.8 °C 39.2 °F /  4 °C 30.1in /  1018.0hPa WSW 8.9mph /  14.3km/h 20mph /  32.2km/h 88% 0.08in /  2.0mm 0 W/m2
22:20 42.4 °F /  5.8 °C 39.2 °F /  4 °C 30.1in /  1018.0hPa West 8.9mph /  14.3km/h 12mph /  19.3km/h 88% 0.07in /  1.8mm 0 W/m2
22:25 42.4 °F /  5.8 °C 38.8 °F /  3.8 °C 30.1in /  1018.0hPa WNW 6.9mph /  11.1km/h 20mph /  32.2km/h 87% 0.06in /  1.5mm 0 W/m2
22:30 42.3 °F /  5.7 °C 38.7 °F /  3.7 °C 30.1in /  1018.3hPa WNW 8.1mph /  13km/h 17mph /  27.4km/h 87% 0.06in /  1.5mm 0 W/m2
22:35 42.3 °F /  5.7 °C 38.7 °F /  3.7 °C 30.1in /  1018.6hPa West 6.9mph /  11.1km/h 9mph /  14.5km/h 87% 0.04in /  1.0mm 0 W/m2
22:40 42.1 °F /  5.6 °C 38.5 °F /  3.6 °C 30.1in /  1019.0hPa West 2.9mph /  4.7km/h 10mph /  16.1km/h 87% 0.02in /  0.5mm 0 W/m2
22:45 42.1 °F /  5.6 °C 38.8 °F /  3.8 °C 30.1in /  1019.0hPa West 10.1mph /  16.3km/h 16mph /  25.7km/h 88% 0in /  0.0mm 0 W/m2
22:50 42.1 °F /  5.6 °C 38.5 °F /  3.6 °C 30.1in /  1019.3hPa West 4mph /  6.4km/h 13mph /  20.9km/h 87% 0in /  0.0mm 0 W/m2
22:55 41.9 °F /  5.5 °C 38.3 °F /  3.5 °C 30.1in /  1019.3hPa West 8.9mph /  14.3km/h 13mph /  20.9km/h 87% 0in /  0.0mm 0 W/m2
23:00 41.9 °F /  5.5 °C 38.3 °F /  3.5 °C 30.1in /  1019.3hPa West 6.9mph /  11.1km/h 16mph /  25.7km/h 87% 0in /  0.0mm 0 W/m2
23:05 41.9 °F /  5.5 °C 38.3 °F /  3.5 °C 30.1in /  1019.6hPa WNW 4mph /  6.4km/h 12mph /  19.3km/h 87% 0in /  0.0mm 0 W/m2
23:10 41.7 °F /  5.4 °C 38.5 °F /  3.6 °C 30.1in /  1019.6hPa WNW 14.1mph /  22.7km/h 14mph /  22.5km/h 88% 0in /  0.0mm 0 W/m2
23:15 41.7 °F /  5.4 °C 38.5 °F /  3.6 °C 30.1in /  1019.6hPa WSW 10.1mph /  16.3km/h 12mph /  19.3km/h 88% 0in /  0.0mm 0 W/m2
23:20 41.7 °F /  5.4 °C 38.5 °F /  3.6 °C 30.1in /  1020.0hPa West 6mph /  9.7km/h 13mph /  20.9km/h 88% 0in /  0.0mm 0 W/m2
23:25 41.7 °F /  5.4 °C 38.5 °F /  3.6 °C 30.1in /  1020.0hPa WNW 4mph /  6.4km/h 10mph /  16.1km/h 88% 0in /  0.0mm 0 W/m2
23:30 41.7 °F /  5.4 °C 38.5 °F /  3.6 °C 30.1in /  1020.3hPa SW 4.9mph /  7.9km/h 11mph /  17.7km/h 88% 0in /  0.0mm 0 W/m2
23:35 41.7 °F /  5.4 °C 38.5 °F /  3.6 °C 30.1in /  1020.3hPa WSW 4mph /  6.4km/h 13mph /  20.9km/h 88% 0in /  0.0mm 0 W/m2
23:40 41.7 °F /  5.4 °C 38.1 °F /  3.4 °C 30.1in /  1020.7hPa WNW 8.1mph /  13km/h 10mph /  16.1km/h 87% 0in /  0.0mm 0 W/m2
23:45 41.7 °F /  5.4 °C 38.1 °F /  3.4 °C 30.1in /  1020.7hPa WSW 6mph /  9.7km/h 13mph /  20.9km/h 87% 0in /  0.0mm 0 W/m2
23:50 41.7 °F /  5.4 °C 38.1 °F /  3.4 °C 30.1in /  1020.7hPa WNW 6.9mph /  11.1km/h 8mph /  12.9km/h 87% 0in /  0.0mm 0 W/m2
23:55 41.7 °F /  5.4 °C 37.8 °F /  3.2 °C 30.2in /  1021.0hPa NW 6mph /  9.7km/h 12mph /  19.3km/h 86% 0in /  0.0mm 0 W/m2
Juneau County Weather
Compliments of Weather Underground - 4 mb